createdAt,value
2017-10-05T00:00:25.963Z,100329
2017-10-05T00:02:55.140Z,100331
2017-10-05T00:05:24.238Z,100337
2017-10-05T00:07:53.782Z,100335
2017-10-05T00:10:23.699Z,100334
2017-10-05T00:12:53.588Z,100327
2017-10-05T00:15:23.172Z,100325
2017-10-05T00:17:53.279Z,100331
2017-10-05T00:20:22.476Z,100328
2017-10-05T00:22:51.791Z,100326
2017-10-05T00:25:20.904Z,100315
2017-10-05T00:27:50.615Z,100309
2017-10-05T00:30:20.101Z,100300
2017-10-05T00:32:49.370Z,100304
2017-10-05T00:35:18.495Z,100302
2017-10-05T00:37:48.434Z,100301
2017-10-05T00:40:17.887Z,100293
2017-10-05T00:42:47.008Z,100294
2017-10-05T00:45:17.202Z,100295
2017-10-05T00:47:46.301Z,100286
2017-10-05T00:50:15.438Z,100285
2017-10-05T00:52:45.009Z,100281
2017-10-05T00:55:14.146Z,100285
2017-10-05T00:57:43.322Z,100283
2017-10-05T01:00:14.872Z,100282
2017-10-05T01:02:43.980Z,100276
2017-10-05T01:05:13.090Z,100277
2017-10-05T01:07:43.418Z,100281
2017-10-05T01:10:12.796Z,100267
2017-10-05T01:12:42.322Z,100266
2017-10-05T01:15:11.600Z,100255
2017-10-05T01:17:40.776Z,100252
2017-10-05T01:20:10.511Z,100260
2017-10-05T01:22:39.938Z,100266
2017-10-05T01:25:09.125Z,100265
2017-10-05T01:27:38.379Z,100267
2017-10-05T01:30:07.679Z,100265
2017-10-05T01:32:38.923Z,100262
2017-10-05T01:35:08.302Z,100278
2017-10-05T01:37:37.523Z,100266
2017-10-05T01:40:06.694Z,100258
2017-10-05T01:42:36.797Z,100259
2017-10-05T01:45:06.036Z,100255
2017-10-05T01:47:35.140Z,100251
2017-10-05T01:50:05.355Z,100251
2017-10-05T01:52:34.606Z,100253
2017-10-05T01:55:03.710Z,100236
2017-10-05T01:57:33.204Z,100229
2017-10-05T02:00:03.212Z,100222
2017-10-05T02:02:33.153Z,100213
2017-10-05T02:05:02.732Z,100204
2017-10-05T02:07:31.890Z,100187
2017-10-05T02:10:01.035Z,100201
2017-10-05T02:12:30.468Z,100193
2017-10-05T02:14:59.634Z,100194
2017-10-05T02:17:29.551Z,100201
2017-10-05T02:19:59.772Z,100201
2017-10-05T02:22:28.869Z,100188
2017-10-05T02:24:58.007Z,100182
2017-10-05T02:27:27.923Z,100177
2017-10-05T02:29:58.114Z,100176
2017-10-05T02:32:27.242Z,100171
2017-10-05T02:34:56.958Z,100168
2017-10-05T02:37:26.081Z,100165
2017-10-05T02:39:55.181Z,100164
2017-10-05T02:42:24.717Z,100156
2017-10-05T02:44:53.859Z,100146
2017-10-05T02:47:23.010Z,100129
2017-10-05T02:49:52.545Z,100126
2017-10-05T02:52:21.646Z,100131
2017-10-05T02:54:50.800Z,100124
2017-10-05T02:57:20.865Z,100125
2017-10-05T02:59:49.950Z,100126
2017-10-05T03:02:19.045Z,100113
2017-10-05T03:04:49.270Z,100099
2017-10-05T03:07:18.366Z,100095
2017-10-05T03:09:47.499Z,100100
2017-10-05T03:12:17.381Z,100096
2017-10-05T03:14:46.470Z,100092
2017-10-05T03:17:15.568Z,100068
2017-10-05T03:19:44.710Z,100066
2017-10-05T03:22:13.830Z,100057
2017-10-05T03:24:42.990Z,100041
2017-10-05T03:27:12.221Z,100029
2017-10-05T03:29:41.438Z,100022
2017-10-05T03:32:10.551Z,100018
2017-10-05T03:34:40.162Z,100017
2017-10-05T03:37:09.318Z,100016
2017-10-05T03:39:39.297Z,100011
2017-10-05T03:42:08.617Z,100009
2017-10-05T03:44:37.832Z,100006
2017-10-05T03:47:07.229Z,100001
2017-10-05T03:49:36.768Z,99993
2017-10-05T03:52:05.906Z,99994
2017-10-05T03:54:35.891Z,99995
2017-10-05T03:57:06.558Z,99976
2017-10-05T03:59:35.805Z,99968
2017-10-05T04:02:05.786Z,99970
2017-10-05T04:04:36.125Z,99971
2017-10-05T04:07:05.355Z,99971
2017-10-05T04:09:34.562Z,99964
2017-10-05T04:12:03.740Z,99965
2017-10-05T04:14:32.887Z,99968
2017-10-05T04:17:02.796Z,99962
2017-10-05T04:19:32.374Z,99957
2017-10-05T04:22:02.233Z,99945
2017-10-05T04:24:31.379Z,99938
2017-10-05T04:27:02.026Z,99934
2017-10-05T04:29:31.115Z,99935
2017-10-05T04:32:00.203Z,99936
2017-10-05T04:34:29.777Z,99946
2017-10-05T04:36:59.653Z,99932
2017-10-05T04:39:29.696Z,99914
2017-10-05T04:41:59.149Z,99896
2017-10-05T04:44:28.254Z,99893
2017-10-05T04:47:00.419Z,99888
2017-10-05T04:49:30.329Z,99888
2017-10-05T04:51:59.417Z,99878
2017-10-05T04:54:28.547Z,99873
2017-10-05T04:56:59.897Z,99872
2017-10-05T04:59:29.017Z,99872
2017-10-05T05:01:58.106Z,99875
2017-10-05T05:04:27.802Z,99860
2017-10-05T05:06:56.907Z,99837
2017-10-05T05:09:26.851Z,99821
2017-10-05T05:11:56.430Z,99818
2017-10-05T05:14:25.574Z,99805
2017-10-05T05:16:54.671Z,99811
2017-10-05T05:19:24.885Z,99813
2017-10-05T05:21:54.059Z,99808
2017-10-05T05:24:23.129Z,99810
2017-10-05T05:26:52.899Z,99811
2017-10-05T05:29:22.757Z,99802
2017-10-05T05:31:51.850Z,99789
2017-10-05T05:34:21.104Z,99787
2017-10-05T05:36:50.254Z,99787
2017-10-05T05:39:19.403Z,99773
2017-10-05T05:41:49.113Z,99764
2017-10-05T05:44:18.203Z,99755
2017-10-05T05:46:47.350Z,99745
2017-10-05T05:49:18.400Z,99749
2017-10-05T05:51:47.486Z,99730
2017-10-05T05:54:16.589Z,99728
2017-10-05T05:56:46.277Z,99721
2017-10-05T05:59:16.202Z,99707
2017-10-05T06:01:45.356Z,99686
2017-10-05T06:04:14.905Z,99675
2017-10-05T06:06:44.055Z,99675
2017-10-05T06:09:13.255Z,99669
2017-10-05T06:11:42.653Z,99660
2017-10-05T06:14:12.530Z,99659
2017-10-05T06:16:41.682Z,99656
2017-10-05T06:19:10.966Z,99652
2017-10-05T06:21:40.273Z,99627
2017-10-05T06:24:09.477Z,99603
2017-10-05T06:26:39.110Z,99594
2017-10-05T06:29:08.282Z,99583
2017-10-05T06:31:37.611Z,99573
2017-10-05T06:34:07.494Z,99567
2017-10-05T06:36:36.651Z,99561
2017-10-05T06:39:05.909Z,99559
2017-10-05T06:41:36.512Z,99542
2017-10-05T06:44:05.787Z,99543
2017-10-05T06:46:35.063Z,99538
2017-10-05T06:49:06.699Z,99545
2017-10-05T06:51:35.968Z,99537
2017-10-05T06:54:05.211Z,99527
2017-10-05T06:56:34.514Z,99521
2017-10-05T06:59:03.755Z,99512
2017-10-05T07:01:32.913Z,99505
2017-10-05T07:04:03.004Z,99501
2017-10-05T07:06:34.378Z,99495
2017-10-05T07:09:05.425Z,99494
2017-10-05T07:11:34.822Z,99492
2017-10-05T07:14:04.019Z,99480
2017-10-05T07:16:33.284Z,99478
2017-10-05T07:19:02.567Z,99468
2017-10-05T07:21:32.738Z,99459
2017-10-05T07:24:02.915Z,99446
2017-10-05T07:26:32.565Z,99436
2017-10-05T07:29:01.716Z,99432
2017-10-05T07:31:31.936Z,99424
2017-10-05T07:34:02.683Z,99418
2017-10-05T07:36:33.131Z,99412
2017-10-05T07:39:02.328Z,99401
2017-10-05T07:41:32.264Z,99398
2017-10-05T07:44:02.225Z,99386
2017-10-05T07:46:31.436Z,99380
2017-10-05T07:49:00.578Z,99375
2017-10-05T07:51:30.848Z,99364
2017-10-05T07:53:59.934Z,99357
2017-10-05T07:56:29.036Z,99341
2017-10-05T07:58:59.468Z,99322
2017-10-05T08:01:28.556Z,99312
2017-10-05T08:03:57.661Z,99299
2017-10-05T08:06:27.007Z,99294
2017-10-05T08:08:56.135Z,99285
2017-10-05T08:11:25.248Z,99273
2017-10-05T08:13:55.671Z,99260
2017-10-05T08:16:24.770Z,99236
2017-10-05T08:18:53.847Z,99233
2017-10-05T08:21:23.762Z,99221
2017-10-05T08:23:53.868Z,99202
2017-10-05T08:26:23.740Z,99189
2017-10-05T08:28:53.679Z,99178
2017-10-05T08:31:22.774Z,99157
2017-10-05T08:33:51.870Z,99147
2017-10-05T08:36:21.215Z,99131
2017-10-05T08:38:50.296Z,99126
2017-10-05T08:41:19.414Z,99119
2017-10-05T08:43:49.346Z,99104
2017-10-05T08:46:19.335Z,99100
2017-10-05T08:48:48.523Z,99095
2017-10-05T08:51:17.995Z,99083
2017-10-05T08:53:47.082Z,99063
2017-10-05T08:56:16.952Z,99037
2017-10-05T08:58:46.704Z,99020
2017-10-05T09:01:15.805Z,99017
2017-10-05T09:03:44.922Z,99006
2017-10-05T09:06:14.667Z,99003
2017-10-05T09:08:44.575Z,98997
2017-10-05T09:11:13.682Z,98991
2017-10-05T09:13:43.787Z,98981
2017-10-05T09:16:12.885Z,98962
2017-10-05T09:18:42.037Z,98957
2017-10-05T09:21:13.024Z,98941
2017-10-05T09:23:42.867Z,98936
2017-10-05T09:26:11.963Z,98925
2017-10-05T09:28:41.468Z,98905
2017-10-05T09:31:11.634Z,98901
2017-10-05T09:33:40.859Z,98899
2017-10-05T09:36:11.790Z,98892
2017-10-05T09:38:40.921Z,98884
2017-10-05T09:41:10.316Z,98882
2017-10-05T09:43:40.778Z,98877
2017-10-05T09:46:10.544Z,98861
2017-10-05T09:48:48.658Z,98864
2017-10-05T09:51:18.664Z,98852
2017-10-05T09:53:47.799Z,98837
2017-10-05T09:56:17.406Z,98842
2017-10-05T09:58:46.489Z,98831
2017-10-05T10:01:15.589Z,98822
2017-10-05T10:03:47.314Z,98818
2017-10-05T10:06:17.195Z,98823
2017-10-05T10:08:47.063Z,98811
2017-10-05T10:11:16.259Z,98815
2017-10-05T10:13:45.375Z,98817
2017-10-05T10:16:15.391Z,98821
2017-10-05T10:18:44.987Z,98833
2017-10-05T10:21:14.087Z,98856
2017-10-05T10:23:43.180Z,98872
2017-10-05T10:26:12.430Z,98886
2017-10-05T10:28:41.568Z,98895
2017-10-05T10:31:10.763Z,98896
2017-10-05T10:33:40.749Z,98893
2017-10-05T10:36:09.896Z,98904
2017-10-05T10:38:38.983Z,98922
2017-10-05T10:41:08.865Z,98913
2017-10-05T10:43:38.866Z,98942
2017-10-05T10:46:08.410Z,98943
2017-10-05T10:48:37.838Z,98982
2017-10-05T10:51:07.127Z,99009
2017-10-05T10:53:36.922Z,99028
2017-10-05T10:56:06.549Z,99063
2017-10-05T10:58:35.832Z,99097
2017-10-05T11:01:05.062Z,99114
2017-10-05T11:03:34.348Z,99117
2017-10-05T11:06:04.756Z,99136
2017-10-05T11:08:34.986Z,99162
2017-10-05T11:11:04.199Z,99194
2017-10-05T11:13:33.466Z,99222
2017-10-05T11:16:02.643Z,99224
2017-10-05T11:18:32.250Z,99224
2017-10-05T11:21:02.963Z,99237
2017-10-05T11:23:32.123Z,99262
2017-10-05T11:26:01.926Z,99283
2017-10-05T11:28:31.489Z,99291
2017-10-05T11:31:05.327Z,99302
2017-10-05T11:33:35.271Z,99321
2017-10-05T11:36:04.556Z,99343
2017-10-05T11:38:34.325Z,99360
2017-10-05T11:41:03.735Z,99380
2017-10-05T11:43:32.925Z,99404
2017-10-05T11:46:03.144Z,99410
2017-10-05T11:48:32.267Z,99420
2017-10-05T11:51:01.857Z,99436
2017-10-05T11:53:32.159Z,99452
2017-10-05T11:56:02.247Z,99448
2017-10-05T11:58:31.794Z,99460
2017-10-05T12:01:01.463Z,99467
2017-10-05T12:03:30.627Z,99483
2017-10-05T12:05:59.908Z,99487
2017-10-05T12:08:30.628Z,99494
2017-10-05T12:10:59.925Z,99506
2017-10-05T12:13:29.322Z,99521
2017-10-05T12:15:58.742Z,99526
2017-10-05T12:18:27.940Z,99534
2017-10-05T12:20:57.180Z,99548
2017-10-05T12:23:27.538Z,99549
2017-10-05T12:25:58.204Z,99559
2017-10-05T12:28:27.305Z,99567
2017-10-05T12:30:56.549Z,99573
2017-10-05T12:33:25.962Z,99585
2017-10-05T12:35:55.127Z,99591
2017-10-05T12:38:25.019Z,99596
2017-10-05T12:40:54.145Z,99616
2017-10-05T12:43:23.354Z,99620
2017-10-05T12:45:53.255Z,99635
2017-10-05T12:48:22.465Z,99641
2017-10-05T12:50:52.376Z,99646
2017-10-05T12:53:22.923Z,99647
2017-10-05T12:55:51.994Z,99657
2017-10-05T12:58:21.098Z,99660
2017-10-05T13:00:50.351Z,99650
2017-10-05T13:03:20.308Z,99668
2017-10-05T13:05:50.246Z,99677
2017-10-05T13:08:19.405Z,99683
2017-10-05T13:10:48.631Z,99693
2017-10-05T13:13:17.748Z,99700
2017-10-05T13:15:48.546Z,99700
2017-10-05T13:18:17.654Z,99706
2017-10-05T13:20:46.750Z,99706
2017-10-05T13:23:16.055Z,99722
2017-10-05T13:25:45.190Z,99726
2017-10-05T13:28:14.888Z,99731
2017-10-05T13:30:44.458Z,99737
2017-10-05T13:33:14.532Z,99741
2017-10-05T13:35:43.707Z,99743
2017-10-05T13:38:13.639Z,99745
2017-10-05T13:40:43.839Z,99746
2017-10-05T13:43:13.007Z,99746
2017-10-05T13:45:44.057Z,99757
2017-10-05T13:48:13.228Z,99756
2017-10-05T13:50:42.447Z,99762
2017-10-05T13:53:11.747Z,99766
2017-10-05T13:55:41.048Z,99757
2017-10-05T13:58:11.247Z,99780
2017-10-05T14:00:41.231Z,99778
2017-10-05T14:03:10.511Z,99780
2017-10-05T14:05:40.482Z,99787
2017-10-05T14:08:10.410Z,99790
2017-10-05T14:10:39.739Z,99785
2017-10-05T14:13:08.907Z,99795
2017-10-05T14:15:39.035Z,99797
2017-10-05T14:18:08.286Z,99800
2017-10-05T14:20:37.535Z,99805
2017-10-05T14:23:07.777Z,99808
2017-10-05T14:25:36.947Z,99810
2017-10-05T14:28:06.194Z,99813
2017-10-05T14:30:35.784Z,99812
2017-10-05T14:33:05.882Z,99823
2017-10-05T14:35:35.354Z,99817
2017-10-05T14:38:05.120Z,99832
2017-10-05T14:40:34.525Z,99838
2017-10-05T14:43:03.915Z,99849
2017-10-05T14:45:33.931Z,99850
2017-10-05T14:48:03.185Z,99849
2017-10-05T14:50:32.350Z,99857
2017-10-05T14:53:01.527Z,99857
2017-10-05T14:55:31.514Z,99860
2017-10-05T14:58:01.424Z,99862
2017-10-05T15:00:30.656Z,99875
2017-10-05T15:02:59.932Z,99874
2017-10-05T15:05:29.106Z,99883
2017-10-05T15:08:01.914Z,99888
2017-10-05T15:10:31.005Z,99885
2017-10-05T15:13:00.877Z,99887
2017-10-05T15:15:30.919Z,99898
2017-10-05T15:18:00.035Z,99885
2017-10-05T15:20:29.178Z,99890
2017-10-05T15:22:59.501Z,99897
2017-10-05T15:25:29.676Z,99898
2017-10-05T15:27:58.870Z,99895
2017-10-05T15:30:28.097Z,99897
2017-10-05T15:32:57.213Z,99908
2017-10-05T15:35:26.350Z,99913
2017-10-05T15:37:55.948Z,99914
2017-10-05T15:40:25.075Z,99917
2017-10-05T15:42:55.070Z,99927
2017-10-05T15:45:24.537Z,99931
2017-10-05T15:47:53.682Z,99933
2017-10-05T15:50:22.777Z,99930
2017-10-05T15:52:52.807Z,99940
2017-10-05T15:55:21.944Z,99938
2017-10-05T15:57:51.073Z,99944
2017-10-05T16:00:20.693Z,99946
2017-10-05T16:02:49.789Z,99955
2017-10-05T16:05:18.886Z,99957
2017-10-05T16:07:48.849Z,99960
2017-10-05T16:10:17.953Z,99966
2017-10-05T16:12:47.039Z,99971
2017-10-05T16:15:16.202Z,99976
2017-10-05T16:17:45.284Z,99974
2017-10-05T16:20:14.378Z,99978
2017-10-05T16:22:43.530Z,99980
2017-10-05T16:25:13.436Z,99986
2017-10-05T16:27:43.812Z,99979
2017-10-05T16:30:15.314Z,99981
2017-10-05T16:32:45.329Z,99993
2017-10-05T16:35:14.459Z,99995
2017-10-05T16:37:44.830Z,99997
2017-10-05T16:40:14.007Z,100008
2017-10-05T16:42:43.108Z,100010
2017-10-05T16:45:13.678Z,100016
2017-10-05T16:47:42.855Z,100025
2017-10-05T16:50:13.153Z,100018
2017-10-05T16:52:43.151Z,100026
2017-10-05T16:55:12.342Z,100030
2017-10-05T16:57:42.286Z,100041
2017-10-05T17:00:12.690Z,100045
2017-10-05T17:02:41.838Z,100043
2017-10-05T17:05:13.092Z,100049
2017-10-05T17:07:42.238Z,100046
2017-10-05T17:10:12.988Z,100057
2017-10-05T17:12:42.418Z,100052
2017-10-05T17:15:12.940Z,100057
2017-10-05T17:17:43.472Z,100060
2017-10-05T17:20:13.813Z,100061
2017-10-05T17:22:43.755Z,100063
2017-10-05T17:25:13.797Z,100062
2017-10-05T17:27:42.990Z,100069
2017-10-05T17:30:12.905Z,100083
2017-10-05T17:32:42.625Z,100078
2017-10-05T17:35:11.784Z,100082
2017-10-05T17:37:40.922Z,100088
2017-10-05T17:40:10.955Z,100095
2017-10-05T17:42:40.153Z,100093
2017-10-05T17:45:09.318Z,100093
2017-10-05T17:47:39.885Z,100098
2017-10-05T17:50:09.063Z,100108
2017-10-05T17:52:38.199Z,100114
2017-10-05T17:55:08.112Z,100115
2017-10-05T17:57:38.114Z,100115
2017-10-05T18:00:07.723Z,100121
2017-10-05T18:02:38.299Z,100121
2017-10-05T18:05:07.619Z,100122
2017-10-05T18:07:38.712Z,100120
2017-10-05T18:10:08.106Z,100124
2017-10-05T18:12:43.318Z,100123
2017-10-05T18:15:13.207Z,100129
2017-10-05T18:17:42.358Z,100138
2017-10-05T18:20:11.734Z,100134
2017-10-05T18:22:41.098Z,100126
2017-10-05T18:25:11.352Z,100132
2017-10-05T18:27:42.624Z,100134
2017-10-05T18:30:14.326Z,100138
2017-10-05T18:32:44.651Z,100139
2017-10-05T18:35:15.112Z,100142
2017-10-05T18:37:46.663Z,100145
2017-10-05T18:40:17.561Z,100146
2017-10-05T18:42:46.773Z,100147
2017-10-05T18:45:19.554Z,100151
2017-10-05T18:47:48.898Z,100157
2017-10-05T18:50:19.227Z,100152
2017-10-05T18:52:58.595Z,100154
2017-10-05T18:55:29.756Z,100163
2017-10-05T18:57:58.967Z,100146
2017-10-05T19:00:30.334Z,100152
2017-10-05T19:02:59.551Z,100156
2017-10-05T19:05:28.713Z,100149
2017-10-05T19:07:59.073Z,100158
2017-10-05T19:10:28.971Z,100153
2017-10-05T19:12:58.286Z,100159
2017-10-05T19:15:28.608Z,100156
2017-10-05T19:17:58.258Z,100156
2017-10-05T19:20:30.654Z,100162
2017-10-05T19:22:59.978Z,100154
2017-10-05T19:25:29.865Z,100151
2017-10-05T19:27:59.473Z,100154
2017-10-05T19:30:29.649Z,100150
2017-10-05T19:32:58.811Z,100148
2017-10-05T19:35:28.068Z,100155
2017-10-05T19:37:57.945Z,100154
2017-10-05T19:40:28.285Z,100164
2017-10-05T19:42:57.679Z,100169
2017-10-05T19:45:26.801Z,100173
2017-10-05T19:47:55.899Z,100174
2017-10-05T19:50:26.145Z,100183
2017-10-05T19:52:56.060Z,100184
2017-10-05T19:55:25.203Z,100192
2017-10-05T19:57:54.739Z,100196
2017-10-05T20:00:24.715Z,100196
2017-10-05T20:02:53.855Z,100183
2017-10-05T20:05:23.039Z,100189
2017-10-05T20:07:52.168Z,100199
2017-10-05T20:10:21.284Z,100218
2017-10-05T20:12:50.809Z,100208
2017-10-05T20:15:34.900Z,100211
2017-10-05T20:18:10.870Z,100203
2017-10-05T20:20:44.808Z,100193
2017-10-05T20:23:19.893Z,100191
2017-10-05T20:26:00.739Z,100197
2017-10-05T20:28:30.726Z,100202
2017-10-05T20:34:12.915Z,100196
2017-10-05T20:36:43.294Z,100193
2017-10-05T20:39:12.673Z,100199
2017-10-05T20:41:43.899Z,100207
2017-10-05T20:44:13.114Z,100196
2017-10-05T20:46:44.454Z,100199
2017-10-05T20:49:13.834Z,100200
2017-10-05T20:51:44.035Z,100202
2017-10-05T20:54:15.111Z,100204
2017-10-05T20:56:45.016Z,100211
2017-10-05T20:59:15.146Z,100219
2017-10-05T21:01:44.753Z,100208
2017-10-05T21:04:13.891Z,100196
2017-10-05T21:06:43.096Z,100192
2017-10-05T21:09:12.813Z,100186
2017-10-05T21:11:42.078Z,100188
2017-10-05T21:14:11.312Z,100196
2017-10-05T21:16:41.035Z,100193
2017-10-05T21:19:11.193Z,100190
2017-10-05T21:21:40.589Z,100197
2017-10-05T21:24:11.312Z,100188
2017-10-05T21:26:41.760Z,100190
2017-10-05T21:29:11.051Z,100190
2017-10-05T21:31:42.544Z,100190
2017-10-05T21:34:11.875Z,100180
2017-10-05T21:36:41.844Z,100183
2017-10-05T21:39:12.746Z,100189
2017-10-05T21:41:42.006Z,100183
2017-10-05T21:44:12.083Z,100192
2017-10-05T21:46:42.377Z,100193
2017-10-05T21:49:11.574Z,100188
2017-10-05T21:51:40.736Z,100193
2017-10-05T21:54:10.338Z,100193
2017-10-05T21:56:40.463Z,100190
2017-10-05T21:59:09.895Z,100186
2017-10-05T22:01:39.276Z,100188
2017-10-05T22:04:08.739Z,100183
2017-10-05T22:06:38.805Z,100186
2017-10-05T22:09:08.325Z,100188
2017-10-05T22:11:37.502Z,100192
2017-10-05T22:14:06.819Z,100195
2017-10-05T22:16:38.653Z,100201
2017-10-05T22:19:07.962Z,100200
2017-10-05T22:21:37.301Z,100202
2017-10-05T22:24:07.446Z,100207
2017-10-05T22:26:38.419Z,100208
2017-10-05T22:29:07.724Z,100211
2017-10-05T22:31:37.108Z,100225
2017-10-05T22:34:06.405Z,100218
2017-10-05T22:36:35.700Z,100222
2017-10-05T22:39:05.381Z,100219
2017-10-05T22:41:34.995Z,100219
2017-10-05T22:44:05.284Z,100209
2017-10-05T22:46:34.969Z,100215
2017-10-05T22:49:04.442Z,100222
2017-10-05T22:51:33.847Z,100224
2017-10-05T22:54:03.729Z,100222
2017-10-05T22:56:34.899Z,100223
2017-10-05T22:59:04.637Z,100211
2017-10-05T23:01:33.972Z,100215
2017-10-05T23:04:03.306Z,100227
2017-10-05T23:06:32.926Z,100231
2017-10-05T23:09:02.271Z,100217
2017-10-05T23:11:32.266Z,100219
2017-10-05T23:14:03.788Z,100222
2017-10-05T23:16:33.740Z,100219
2017-10-05T23:19:03.508Z,100216
2017-10-05T23:21:32.929Z,100221
2017-10-05T23:24:02.122Z,100219
2017-10-05T23:26:32.208Z,100220
2017-10-05T23:29:02.607Z,100219
2017-10-05T23:31:31.894Z,100223
2017-10-05T23:34:01.854Z,100226
2017-10-05T23:36:32.323Z,100224
2017-10-05T23:39:01.707Z,100222
2017-10-05T23:41:31.698Z,100226
2017-10-05T23:44:01.610Z,100225
2017-10-05T23:46:31.522Z,100220
2017-10-05T23:49:00.721Z,100222
2017-10-05T23:51:30.273Z,100220
2017-10-05T23:53:59.453Z,100221
2017-10-05T23:56:29.185Z,100220
2017-10-05T23:58:58.628Z,100226
